sensor_id;sensor_type;location;lat;lon;timestamp;pressure;altitude;pressure_sealevel;temperature;humidity
76586;BME280;65251;51.022;13.736;2023-04-08T00:00:21;99651.78;;;5.76;80.16
76586;BME280;65251;51.022;13.736;2023-04-08T00:00:53;99651.94;;;5.75;80.65
76586;BME280;65251;51.022;13.736;2023-04-08T00:01:24;99645.84;;;5.74;80.02
76586;BME280;65251;51.022;13.736;2023-04-08T00:01:55;99650.28;;;5.74;79.98
76586;BME280;65251;51.022;13.736;2023-04-08T00:02:27;99644.19;;;5.73;80.19
76586;BME280;65251;51.022;13.736;2023-04-08T00:02:58;99650.13;;;5.75;80.37
76586;BME280;65251;51.022;13.736;2023-04-08T00:03:28;99641.03;;;5.78;80.69
76586;BME280;65251;51.022;13.736;2023-04-08T00:04:00;99644.50;;;5.78;80.13
76586;BME280;65251;51.022;13.736;2023-04-08T00:04:31;99648.63;;;5.81;80.66
76586;BME280;65251;51.022;13.736;2023-04-08T00:05:03;99649.28;;;5.83;80.41
76586;BME280;65251;51.022;13.736;2023-04-08T00:05:34;99645.50;;;5.85;80.04
76586;BME280;65251;51.022;13.736;2023-04-08T00:06:05;99651.44;;;5.87;80.00
76586;BME280;65251;51.022;13.736;2023-04-08T00:06:37;99647.16;;;5.86;80.02
76586;BME280;65251;51.022;13.736;2023-04-08T00:07:08;99646.97;;;5.88;79.52
76586;BME280;65251;51.022;13.736;2023-04-08T00:07:39;99646.03;;;5.89;79.70
76586;BME280;65251;51.022;13.736;2023-04-08T00:08:10;99642.38;;;5.90;79.35
76586;BME280;65251;51.022;13.736;2023-04-08T00:08:41;99648.66;;;5.89;79.65
76586;BME280;65251;51.022;13.736;2023-04-08T00:09:12;99657.25;;;5.91;79.80
76586;BME280;65251;51.022;13.736;2023-04-08T00:09:44;99645.84;;;5.91;79.96
76586;BME280;65251;51.022;13.736;2023-04-08T00:10:15;99653.47;;;5.94;79.58
76586;BME280;65251;51.022;13.736;2023-04-08T00:10:45;99641.56;;;5.90;79.48
76586;BME280;65251;51.022;13.736;2023-04-08T00:11:16;99651.00;;;5.92;80.18
76586;BME280;65251;51.022;13.736;2023-04-08T00:11:48;99652.63;;;5.93;79.86
76586;BME280;65251;51.022;13.736;2023-04-08T00:12:19;99649.84;;;5.95;79.61
76586;BME280;65251;51.022;13.736;2023-04-08T00:12:49;99641.41;;;5.91;79.64
76586;BME280;65251;51.022;13.736;2023-04-08T00:13:21;99653.47;;;5.94;79.57
76586;BME280;65251;51.022;13.736;2023-04-08T00:13:52;99644.72;;;5.93;79.28
76586;BME280;65251;51.022;13.736;2023-04-08T00:14:24;99647.19;;;5.95;79.73
76586;BME280;65251;51.022;13.736;2023-04-08T00:14:56;99640.91;;;5.96;79.45
76586;BME280;65251;51.022;13.736;2023-04-08T00:15:27;99645.03;;;5.98;79.20
76586;BME280;65251;51.022;13.736;2023-04-08T00:15:58;99648.31;;;6.00;79.46
76586;BME280;65251;51.022;13.736;2023-04-08T00:16:30;99657.44;;;5.98;79.64
76586;BME280;65251;51.022;13.736;2023-04-08T00:17:01;99652.97;;;5.98;79.32
76586;BME280;65251;51.022;13.736;2023-04-08T00:17:31;99651.16;;;5.99;79.15
76586;BME280;65251;51.022;13.736;2023-04-08T00:18:03;99648.31;;;6.00;79.97
76586;BME280;65251;51.022;13.736;2023-04-08T00:18:34;99651.78;;;6.01;79.72
76586;BME280;65251;51.022;13.736;2023-04-08T00:19:07;99645.03;;;5.98;79.31
76586;BME280;65251;51.022;13.736;2023-04-08T00:19:39;99651.50;;;5.96;79.17
76586;BME280;65251;51.022;13.736;2023-04-08T00:20:10;99650.97;;;6.00;79.61
76586;BME280;65251;51.022;13.736;2023-04-08T00:20:41;99650.81;;;6.02;79.73
76586;BME280;65251;51.022;13.736;2023-04-08T00:21:13;99649.66;;;6.04;79.77
76586;BME280;65251;51.022;13.736;2023-04-08T00:21:45;99651.47;;;6.04;79.03
76586;BME280;65251;51.022;13.736;2023-04-08T00:22:17;99647.34;;;6.01;79.49
76586;BME280;65251;51.022;13.736;2023-04-08T00:22:49;99653.44;;;6.02;79.66
76586;BME280;65251;51.022;13.736;2023-04-08T00:23:20;99648.66;;;6.05;79.49
76586;BME280;65251;51.022;13.736;2023-04-08T00:23:50;99646.16;;;6.04;79.54
76586;BME280;65251;51.022;13.736;2023-04-08T00:24:21;99650.47;;;6.05;79.22
76586;BME280;65251;51.022;13.736;2023-04-08T00:24:53;99647.19;;;5.95;79.54
76586;BME280;65251;51.022;13.736;2023-04-08T00:25:24;99647.03;;;5.96;79.98
76586;BME280;65251;51.022;13.736;2023-04-08T00:25:54;99648.19;;;5.94;80.09
76586;BME280;65251;51.022;13.736;2023-04-08T00:26:26;99646.34;;;5.94;80.20
76586;BME280;65251;51.022;13.736;2023-04-08T00:26:57;99646.03;;;5.97;80.39
76586;BME280;65251;51.022;13.736;2023-04-08T00:27:28;99645.38;;;5.95;79.95
76586;BME280;65251;51.022;13.736;2023-04-08T00:27:59;99642.56;;;5.97;79.97
76586;BME280;65251;51.022;13.736;2023-04-08T00:28:30;99652.78;;;6.00;80.17
76586;BME280;65251;51.022;13.736;2023-04-08T00:29:01;99652.00;;;5.99;80.43
76586;BME280;65251;51.022;13.736;2023-04-08T00:29:34;99648.00;;;5.95;80.49
76586;BME280;65251;51.022;13.736;2023-04-08T00:30:06;99646.16;;;5.87;81.01
76586;BME280;65251;51.022;13.736;2023-04-08T00:30:37;99646.34;;;5.78;80.95
76586;BME280;65251;51.022;13.736;2023-04-08T00:31:08;99643.84;;;5.76;81.01
76586;BME280;65251;51.022;13.736;2023-04-08T00:31:40;99648.81;;;5.79;81.10
76586;BME280;65251;51.022;13.736;2023-04-08T00:32:11;99647.78;;;5.80;81.65
76586;BME280;65251;51.022;13.736;2023-04-08T00:32:42;99644.66;;;5.85;81.43
76586;BME280;65251;51.022;13.736;2023-04-08T00:33:14;99652.44;;;5.86;80.92
76586;BME280;65251;51.022;13.736;2023-04-08T00:33:46;99652.13;;;5.90;80.82
76586;BME280;65251;51.022;13.736;2023-04-08T00:34:16;99649.78;;;5.86;80.88
76586;BME280;65251;51.022;13.736;2023-04-08T00:34:48;99644.81;;;5.83;80.78
76586;BME280;65251;51.022;13.736;2023-04-08T00:35:19;99650.13;;;5.83;81.13
76586;BME280;65251;51.022;13.736;2023-04-08T00:35:50;99644.69;;;5.77;80.80
76586;BME280;65251;51.022;13.736;2023-04-08T00:36:21;99645.00;;;5.82;81.53
76586;BME280;65251;51.022;13.736;2023-04-08T00:36:53;99646.63;;;5.83;81.37
76586;BME280;65251;51.022;13.736;2023-04-08T00:37:23;99653.25;;;5.87;81.07
76586;BME280;65251;51.022;13.736;2023-04-08T00:37:54;99647.69;;;5.90;81.40
76586;BME280;65251;51.022;13.736;2023-04-08T00:38:26;99649.84;;;5.95;81.58
76586;BME280;65251;51.022;13.736;2023-04-08T00:38:56;99645.22;;;5.97;80.64
76586;BME280;65251;51.022;13.736;2023-04-08T00:39:27;99648.19;;;5.94;80.45
76586;BME280;65251;51.022;13.736;2023-04-08T00:39:59;99640.72;;;5.89;80.17
76586;BME280;65251;51.022;13.736;2023-04-08T00:40:30;99650.13;;;5.83;81.56
76586;BME280;65251;51.022;13.736;2023-04-08T00:41:01;99650.97;;;5.76;81.25
76586;BME280;65251;51.022;13.736;2023-04-08T00:41:33;99654.75;;;5.73;81.50
76586;BME280;65251;51.022;13.736;2023-04-08T00:42:04;99653.75;;;5.74;81.33
76586;BME280;65251;51.022;13.736;2023-04-08T00:42:35;99649.31;;;5.75;81.63
76586;BME280;65251;51.022;13.736;2023-04-08T00:43:07;99650.78;;;5.77;81.65
76586;BME280;65251;51.022;13.736;2023-04-08T00:43:38;99651.63;;;5.78;81.75
76586;BME280;65251;51.022;13.736;2023-04-08T00:44:08;99648.63;;;5.81;81.31
76586;BME280;65251;51.022;13.736;2023-04-08T00:44:42;99643.00;;;5.84;81.75
76586;BME280;65251;51.022;13.736;2023-04-08T00:45:13;99649.94;;;5.85;81.33
76586;BME280;65251;51.022;13.736;2023-04-08T00:45:43;99645.03;;;5.90;81.34
76586;BME280;65251;51.022;13.736;2023-04-08T00:46:16;99650.00;;;5.93;81.76
76586;BME280;65251;51.022;13.736;2023-04-08T00:46:46;99648.00;;;5.95;81.24
76586;BME280;65251;51.022;13.736;2023-04-08T00:47:18;99653.47;;;5.94;81.53
76586;BME280;65251;51.022;13.736;2023-04-08T00:47:49;99648.84;;;5.96;81.53
76586;BME280;65251;51.022;13.736;2023-04-08T00:48:21;99653.81;;;5.99;81.46
76586;BME280;65251;51.022;13.736;2023-04-08T00:48:53;99642.22;;;5.92;81.59
76586;BME280;65251;51.022;13.736;2023-04-08T00:49:25;99645.69;;;5.92;81.04
76586;BME280;65251;51.022;13.736;2023-04-08T00:49:56;99651.16;;;5.91;81.03
76586;BME280;65251;51.022;13.736;2023-04-08T00:50:27;99649.00;;;5.94;81.01
76586;BME280;65251;51.022;13.736;2023-04-08T00:50:59;99652.47;;;5.95;80.90
76586;BME280;65251;51.022;13.736;2023-04-08T00:51:30;99653.13;;;5.97;80.65
76586;BME280;65251;51.022;13.736;2023-04-08T00:52:01;99655.13;;;5.95;80.92
76586;BME280;65251;51.022;13.736;2023-04-08T00:52:33;99652.81;;;5.92;80.76
76586;BME280;65251;51.022;13.736;2023-04-08T00:53:04;99648.50;;;5.91;81.27
76586;BME280;65251;51.022;13.736;2023-04-08T00:53:35;99652.81;;;5.92;81.74
76586;BME280;65251;51.022;13.736;2023-04-08T00:54:06;99652.31;;;5.96;81.52
76586;BME280;65251;51.022;13.736;2023-04-08T00:54:38;99652.31;;;5.96;81.15
76586;BME280;65251;51.022;13.736;2023-04-08T00:55:09;99653.44;;;6.02;81.05
76586;BME280;65251;51.022;13.736;2023-04-08T00:55:40;99653.44;;;6.02;80.90
76586;BME280;65251;51.022;13.736;2023-04-08T00:56:11;99647.16;;;6.03;80.45
76586;BME280;65251;51.022;13.736;2023-04-08T00:56:44;99652.44;;;6.03;80.61
76586;BME280;65251;51.022;13.736;2023-04-08T00:57:15;99643.53;;;6.04;81.02
76586;BME280;65251;51.022;13.736;2023-04-08T00:57:47;99645.03;;;6.06;80.67
76586;BME280;65251;51.022;13.736;2023-04-08T00:58:18;99651.31;;;6.05;80.69
76586;BME280;65251;51.022;13.736;2023-04-08T00:58:49;99648.66;;;6.05;81.47
76586;BME280;65251;51.022;13.736;2023-04-08T00:59:25;99645.34;;;6.03;80.80
76586;BME280;65251;51.022;13.736;2023-04-08T00:59:58;99654.09;;;6.04;80.83
76586;BME280;65251;51.022;13.736;2023-04-08T01:00:30;99649.66;;;6.04;80.97
76586;BME280;65251;51.022;13.736;2023-04-08T01:01:07;99648.81;;;6.04;80.60
76586;BME280;65251;51.022;13.736;2023-04-08T01:01:45;99654.09;;;6.04;80.80
76586;BME280;65251;51.022;13.736;2023-04-08T01:02:28;99646.00;;;6.05;80.85
76586;BME280;65251;51.022;13.736;2023-04-08T01:03:11;99650.31;;;6.06;80.24
76586;BME280;65251;51.022;13.736;2023-04-08T01:03:52;99650.16;;;6.08;80.14
76586;BME280;65251;51.022;13.736;2023-04-08T01:04:34;99643.88;;;6.09;80.21
76586;BME280;65251;51.022;13.736;2023-04-08T01:05:14;99651.63;;;6.10;80.23
76586;BME280;65251;51.022;13.736;2023-04-08T01:05:59;99652.47;;;6.11;80.49
76586;BME280;65251;51.022;13.736;2023-04-08T01:06:39;99643.53;;;6.12;80.74
76586;BME280;65251;51.022;13.736;2023-04-08T01:07:16;99645.34;;;6.11;79.93
76586;BME280;65251;51.022;13.736;2023-04-08T01:07:49;99644.03;;;6.07;81.50
76586;BME280;65251;51.022;13.736;2023-04-08T01:08:25;99633.44;;;6.07;80.77
76586;BME280;65251;51.022;13.736;2023-04-08T01:08:59;99638.75;;;6.07;81.07
76586;BME280;65251;51.022;13.736;2023-04-08T01:09:32;99638.75;;;6.07;80.81
76586;BME280;65251;51.022;13.736;2023-04-08T01:10:12;99637.09;;;6.06;80.80
76586;BME280;65251;51.022;13.736;2023-04-08T01:10:50;99635.44;;;6.05;81.26
76586;BME280;65251;51.022;13.736;2023-04-08T01:11:26;99640.22;;;6.02;81.23
76586;BME280;65251;51.022;13.736;2023-04-08T01:12:04;99639.41;;;6.01;81.06
76586;BME280;65251;51.022;13.736;2023-04-08T01:12:40;99638.41;;;6.02;81.05
76586;BME280;65251;51.022;13.736;2023-04-08T01:13:17;99635.44;;;6.05;80.90
76586;BME280;65251;51.022;13.736;2023-04-08T01:13:53;99644.03;;;6.07;80.88
76586;BME280;65251;51.022;13.736;2023-04-08T01:14:27;99644.53;;;6.11;81.00
76586;BME280;65251;51.022;13.736;2023-04-08T01:15:04;99639.22;;;6.11;81.19
76586;BME280;65251;51.022;13.736;2023-04-08T01:15:37;99642.88;;;6.10;81.20
76586;BME280;65251;51.022;13.736;2023-04-08T01:16:11;99642.72;;;6.11;80.84
76586;BME280;65251;51.022;13.736;2023-04-08T01:16:45;99645.03;;;6.14;80.64
76586;BME280;65251;51.022;13.736;2023-04-08T01:17:18;99640.22;;;6.10;80.96
76586;BME280;65251;51.022;13.736;2023-04-08T01:17:54;99646.19;;;6.12;81.24
76586;BME280;65251;51.022;13.736;2023-04-08T01:18:29;99646.00;;;6.13;81.48
76586;BME280;65251;51.022;13.736;2023-04-08T01:19:00;99644.03;;;6.15;80.74
76586;BME280;65251;51.022;13.736;2023-04-08T01:19:34;99646.50;;;6.17;81.27
76586;BME280;65251;51.022;13.736;2023-04-08T01:20:09;99636.75;;;6.17;81.41
76586;BME280;65251;51.022;13.736;2023-04-08T01:20:42;99639.56;;;6.16;80.60
76586;BME280;65251;51.022;13.736;2023-04-08T01:21:16;99643.69;;;6.18;80.64
76586;BME280;65251;51.022;13.736;2023-04-08T01:21:50;99635.78;;;6.18;80.79
76586;BME280;65251;51.022;13.736;2023-04-08T01:22:28;99639.41;;;6.17;80.90
76586;BME280;65251;51.022;13.736;2023-04-08T01:23:09;99641.69;;;6.20;81.03
76586;BME280;65251;51.022;13.736;2023-04-08T01:23:55;99638.88;;;6.22;81.32
76586;BME280;65251;51.022;13.736;2023-04-08T01:24:33;99642.50;;;6.21;80.55
76586;BME280;65251;51.022;13.736;2023-04-08T01:25:13;99637.22;;;6.21;80.35
76586;BME280;65251;51.022;13.736;2023-04-08T01:25:48;99637.06;;;6.22;80.88
76586;BME280;65251;51.022;13.736;2023-04-08T01:26:21;99637.06;;;6.22;80.95
76586;BME280;65251;51.022;13.736;2023-04-08T01:26:57;99642.03;;;6.26;80.51
76586;BME280;65251;51.022;13.736;2023-04-08T01:27:30;99634.91;;;6.26;80.76
76586;BME280;65251;51.022;13.736;2023-04-08T01:28:05;99635.25;;;6.23;81.40
76586;BME280;65251;51.022;13.736;2023-04-08T01:28:39;99633.41;;;6.23;80.90
76586;BME280;65251;51.022;13.736;2023-04-08T01:29:15;99634.91;;;6.26;80.49
76586;BME280;65251;51.022;13.736;2023-04-08T01:29:48;99634.09;;;6.26;81.44
76586;BME280;65251;51.022;13.736;2023-04-08T01:30:22;99638.72;;;6.23;80.39
76586;BME280;65251;51.022;13.736;2023-04-08T01:30:57;99630.78;;;6.23;81.11
76586;BME280;65251;51.022;13.736;2023-04-08T01:31:30;99638.53;;;6.25;81.28
76586;BME280;65251;51.022;13.736;2023-04-08T01:32:04;99637.72;;;6.25;80.85
76586;BME280;65251;51.022;13.736;2023-04-08T01:32:38;99640.19;;;6.26;80.95
76586;BME280;65251;51.022;13.736;2023-04-08T01:33:12;99633.25;;;6.25;81.27
76586;BME280;65251;51.022;13.736;2023-04-08T01:33:46;99630.78;;;6.23;81.24
76586;BME280;65251;51.022;13.736;2023-04-08T01:34:20;99640.69;;;6.21;81.19
76586;BME280;65251;51.022;13.736;2023-04-08T01:34:52;99636.22;;;6.22;81.26
76586;BME280;65251;51.022;13.736;2023-04-08T01:35:25;99636.91;;;6.24;81.56
76586;BME280;65251;51.022;13.736;2023-04-08T01:35:57;99633.25;;;6.25;80.71
76586;BME280;65251;51.022;13.736;2023-04-08T01:36:29;99638.53;;;6.25;81.02
76586;BME280;65251;51.022;13.736;2023-04-08T01:37:05;99639.38;;;6.26;81.03
76586;BME280;65251;51.022;13.736;2023-04-08T01:37:38;99640.03;;;6.28;81.59
76586;BME280;65251;51.022;13.736;2023-04-08T01:38:14;99631.94;;;6.29;80.67
76586;BME280;65251;51.022;13.736;2023-04-08T01:38:48;99640.38;;;6.33;81.33
76586;BME280;65251;51.022;13.736;2023-04-08T01:39:20;99634.25;;;6.32;81.01
76586;BME280;65251;51.022;13.736;2023-04-08T01:39:54;99638.72;;;6.32;80.59
76586;BME280;65251;51.022;13.736;2023-04-08T01:40:27;99641.69;;;6.37;81.08
76586;BME280;65251;51.022;13.736;2023-04-08T01:40:59;99634.41;;;6.39;81.02
76586;BME280;65251;51.022;13.736;2023-04-08T01:41:32;99636.22;;;6.38;80.97
76586;BME280;65251;51.022;13.736;2023-04-08T01:42:04;99634.56;;;6.37;80.89
76586;BME280;65251;51.022;13.736;2023-04-08T01:42:37;99637.38;;;6.36;80.81
76586;BME280;65251;51.022;13.736;2023-04-08T01:43:10;99633.25;;;6.33;81.55
76586;BME280;65251;51.022;13.736;2023-04-08T01:43:43;99642.69;;;6.36;81.18
76586;BME280;65251;51.022;13.736;2023-04-08T01:44:18;99634.25;;;6.32;81.12
76586;BME280;65251;51.022;13.736;2023-04-08T01:44:51;99632.44;;;6.33;80.97
76586;BME280;65251;51.022;13.736;2023-04-08T01:45:25;99634.25;;;6.32;80.49
76586;BME280;65251;51.022;13.736;2023-04-08T01:45:59;99635.25;;;6.31;81.15
76586;BME280;65251;51.022;13.736;2023-04-08T01:46:31;99630.13;;;6.30;81.77
76586;BME280;65251;51.022;13.736;2023-04-08T01:47:02;99623.66;;;6.32;81.06
76586;BME280;65251;51.022;13.736;2023-04-08T01:47:36;99631.94;;;6.37;80.58
76586;BME280;65251;51.022;13.736;2023-04-08T01:48:08;99631.09;;;6.37;81.05
76586;BME280;65251;51.022;13.736;2023-04-08T01:48:40;99618.88;;;6.36;81.09
76586;BME280;65251;51.022;13.736;2023-04-08T01:49:14;99624.31;;;6.34;81.05
76586;BME280;65251;51.022;13.736;2023-04-08T01:49:46;99626.63;;;6.37;81.27
76586;BME280;65251;51.022;13.736;2023-04-08T01:50:18;99623.16;;;6.37;81.46
76586;BME280;65251;51.022;13.736;2023-04-08T01:50:52;99621.34;;;6.37;81.48
76586;BME280;65251;51.022;13.736;2023-04-08T01:51:26;99625.47;;;6.32;80.84
76586;BME280;65251;51.022;13.736;2023-04-08T01:51:58;99632.44;;;6.33;81.32
76586;BME280;65251;51.022;13.736;2023-04-08T01:52:34;99631.94;;;6.29;81.34
76586;BME280;65251;51.022;13.736;2023-04-08T01:53:08;99632.09;;;6.28;81.60
76586;BME280;65251;51.022;13.736;2023-04-08T01:53:40;99626.97;;;6.26;81.73
76586;BME280;65251;51.022;13.736;2023-04-08T01:54:13;99628.13;;;6.23;81.57
76586;BME280;65251;51.022;13.736;2023-04-08T01:54:44;99630.59;;;6.25;81.48
76586;BME280;65251;51.022;13.736;2023-04-08T01:55:16;99632.25;;;6.26;81.51
76586;BME280;65251;51.022;13.736;2023-04-08T01:55:54;99629.63;;;6.26;82.49
76586;BME280;65251;51.022;13.736;2023-04-08T01:56:28;99631.94;;;6.29;81.74
76586;BME280;65251;51.022;13.736;2023-04-08T01:57:05;99634.75;;;6.28;81.79
76586;BME280;65251;51.022;13.736;2023-04-08T01:57:43;99627.63;;;6.28;82.21
76586;BME280;65251;51.022;13.736;2023-04-08T01:58:19;99627.63;;;6.28;82.05
76586;BME280;65251;51.022;13.736;2023-04-08T01:58:53;99638.22;;;6.28;81.54
76586;BME280;65251;51.022;13.736;2023-04-08T01:59:30;99633.75;;;6.29;81.50
76586;BME280;65251;51.022;13.736;2023-04-08T02:00:07;99637.38;;;6.28;81.61
76586;BME280;65251;51.022;13.736;2023-04-08T02:00:40;99635.56;;;6.28;81.81
76586;BME280;65251;51.022;13.736;2023-04-08T02:01:17;99637.22;;;6.29;82.06
76586;BME280;65251;51.022;13.736;2023-04-08T02:01:52;99639.22;;;6.27;82.41
76586;BME280;65251;51.022;13.736;2023-04-08T02:02:25;99632.94;;;6.28;81.61
76586;BME280;65251;51.022;13.736;2023-04-08T02:02:58;99640.03;;;6.28;81.89
76586;BME280;65251;51.022;13.736;2023-04-08T02:03:30;99635.56;;;6.28;81.72
76586;BME280;65251;51.022;13.736;2023-04-08T02:04:04;99642.34;;;6.31;82.37
76586;BME280;65251;51.022;13.736;2023-04-08T02:04:35;99640.19;;;6.26;82.33
76586;BME280;65251;51.022;13.736;2023-04-08T02:05:06;99649.97;;;6.26;81.86
76586;BME280;65251;51.022;13.736;2023-04-08T02:05:39;99636.91;;;6.24;82.16
76586;BME280;65251;51.022;13.736;2023-04-08T02:06:10;99640.38;;;6.25;82.41
76586;BME280;65251;51.022;13.736;2023-04-08T02:06:41;99638.53;;;6.25;81.83
76586;BME280;65251;51.022;13.736;2023-04-08T02:07:13;99635.06;;;6.25;82.64
76586;BME280;65251;51.022;13.736;2023-04-08T02:07:46;99643.84;;;6.25;82.61
76586;BME280;65251;51.022;13.736;2023-04-08T02:08:17;99646.16;;;6.28;82.22
76586;BME280;65251;51.022;13.736;2023-04-08T02:08:48;99642.69;;;6.28;81.60
76586;BME280;65251;51.022;13.736;2023-04-08T02:09:19;99646.66;;;6.32;82.41
76586;BME280;65251;51.022;13.736;2023-04-08T02:09:50;99646.00;;;6.30;82.77
76586;BME280;65251;51.022;13.736;2023-04-08T02:10:22;99637.88;;;6.31;81.97
76586;BME280;65251;51.022;13.736;2023-04-08T02:10:52;99641.03;;;6.35;81.40
76586;BME280;65251;51.022;13.736;2023-04-08T02:11:23;99643.00;;;6.33;81.83
76586;BME280;65251;51.022;13.736;2023-04-08T02:11:56;99646.16;;;6.36;82.42
76586;BME280;65251;51.022;13.736;2023-04-08T02:12:28;99645.31;;;6.36;82.02
76586;BME280;65251;51.022;13.736;2023-04-08T02:12:59;99648.31;;;6.33;81.72
76586;BME280;65251;51.022;13.736;2023-04-08T02:13:31;99645.81;;;6.31;82.13
76586;BME280;65251;51.022;13.736;2023-04-08T02:14:03;99650.13;;;6.32;81.96
76586;BME280;65251;51.022;13.736;2023-04-08T02:14:34;99646.66;;;6.32;82.05
76586;BME280;65251;51.022;13.736;2023-04-08T02:15:07;99648.81;;;6.28;82.28
76586;BME280;65251;51.022;13.736;2023-04-08T02:15:46;99645.81;;;6.31;82.65
76586;BME280;65251;51.022;13.736;2023-04-08T02:16:22;99651.94;;;6.32;82.03
76586;BME280;65251;51.022;13.736;2023-04-08T02:16:58;99644.84;;;6.32;82.21
76586;BME280;65251;51.022;13.736;2023-04-08T02:17:38;99649.47;;;6.30;82.17
76586;BME280;65251;51.022;13.736;2023-04-08T02:18:15;99641.53;;;6.30;82.67
76586;BME280;65251;51.022;13.736;2023-04-08T02:18:57;99649.13;;;6.25;82.07
76586;BME280;65251;51.022;13.736;2023-04-08T02:19:39;99652.28;;;6.29;82.17
76586;BME280;65251;51.022;13.736;2023-04-08T02:20:16;99651.44;;;6.28;82.08
76586;BME280;65251;51.022;13.736;2023-04-08T02:20:55;99653.94;;;6.30;82.00
76586;BME280;65251;51.022;13.736;2023-04-08T02:21:35;99650.94;;;6.25;82.91
76586;BME280;65251;51.022;13.736;2023-04-08T02:22:12;99644.00;;;6.23;81.83
76586;BME280;65251;51.022;13.736;2023-04-08T02:22:48;99647.31;;;6.26;82.18
76586;BME280;65251;51.022;13.736;2023-04-08T02:23:26;99653.25;;;6.28;82.40
76586;BME280;65251;51.022;13.736;2023-04-08T02:24:04;99648.63;;;6.30;82.38
76586;BME280;65251;51.022;13.736;2023-04-08T02:24:37;99645.16;;;6.29;82.70
76586;BME280;65251;51.022;13.736;2023-04-08T02:25:14;99651.63;;;6.35;83.05
76586;BME280;65251;51.022;13.736;2023-04-08T02:25:47;99648.97;;;6.35;82.99
76586;BME280;65251;51.022;13.736;2023-04-08T02:26:21;99646.66;;;6.32;83.17
76586;BME280;65251;51.022;13.736;2023-04-08T02:26:57;99644.50;;;6.35;82.09
76586;BME280;65251;51.022;13.736;2023-04-08T02:27:33;99653.25;;;6.36;82.46
76586;BME280;65251;51.022;13.736;2023-04-08T02:28:08;99648.78;;;6.36;82.33
76586;BME280;65251;51.022;13.736;2023-04-08T02:28:41;99642.69;;;6.28;82.36
76586;BME280;65251;51.022;13.736;2023-04-08T02:29:14;99643.34;;;6.30;82.78
76586;BME280;65251;51.022;13.736;2023-04-08T02:29:48;99652.78;;;6.32;82.89
76586;BME280;65251;51.022;13.736;2023-04-08T02:30:24;99644.00;;;6.32;82.71
76586;BME280;65251;51.022;13.736;2023-04-08T02:30:59;99648.31;;;6.33;82.52
76586;BME280;65251;51.022;13.736;2023-04-08T02:31:33;99645.00;;;6.31;82.78
76586;BME280;65251;51.022;13.736;2023-04-08T02:32:05;99655.09;;;6.35;83.00
76586;BME280;65251;51.022;13.736;2023-04-08T02:32:38;99643.00;;;6.33;82.93
76586;BME280;65251;51.022;13.736;2023-04-08T02:33:11;99654.09;;;6.36;82.58
76586;BME280;65251;51.022;13.736;2023-04-08T02:33:45;99649.63;;;6.37;82.92
76586;BME280;65251;51.022;13.736;2023-04-08T02:34:17;99648.47;;;6.39;83.28
76586;BME280;65251;51.022;13.736;2023-04-08T02:34:52;99646.81;;;6.38;82.83
76586;BME280;65251;51.022;13.736;2023-04-08T02:35:26;99653.75;;;6.39;82.61
76586;BME280;65251;51.022;13.736;2023-04-08T02:35:57;99649.09;;;6.41;82.41
76586;BME280;65251;51.022;13.736;2023-04-08T02:36:31;99646.97;;;6.37;82.71
76586;BME280;65251;51.022;13.736;2023-04-08T02:37:03;99656.88;;;6.43;82.69
76586;BME280;65251;51.022;13.736;2023-04-08T02:37:34;99652.41;;;6.43;82.31
76586;BME280;65251;51.022;13.736;2023-04-08T02:38:05;99650.59;;;6.44;82.48
76586;BME280;65251;51.022;13.736;2023-04-08T02:38:36;99650.41;;;6.45;83.13
76586;BME280;65251;51.022;13.736;2023-04-08T02:39:07;99641.66;;;6.45;81.59
76586;BME280;65251;51.022;13.736;2023-04-08T02:39:38;99643.31;;;6.46;81.92
76586;BME280;65251;51.022;13.736;2023-04-08T02:40:24;99651.56;;;6.43;82.47
76586;BME280;65251;51.022;13.736;2023-04-08T02:40:57;99653.41;;;6.42;82.19
76586;BME280;65251;51.022;13.736;2023-04-08T02:41:28;99639.16;;;6.43;82.32
76586;BME280;65251;51.022;13.736;2023-04-08T02:42:00;99645.63;;;6.49;82.29
76586;BME280;65251;51.022;13.736;2023-04-08T02:42:32;99638.50;;;6.49;81.62
76586;BME280;65251;51.022;13.736;2023-04-08T02:43:03;99639.50;;;6.48;82.24
76586;BME280;65251;51.022;13.736;2023-04-08T02:43:33;99637.69;;;6.49;82.39
76586;BME280;65251;51.022;13.736;2023-04-08T02:44:06;99634.38;;;6.47;81.98
76586;BME280;65251;51.022;13.736;2023-04-08T02:44:36;99634.19;;;6.48;81.98
76586;BME280;65251;51.022;13.736;2023-04-08T02:45:08;99636.84;;;6.48;81.66
76586;BME280;65251;51.022;13.736;2023-04-08T02:45:41;99636.03;;;6.48;82.18
76586;BME280;65251;51.022;13.736;2023-04-08T02:46:13;99645.63;;;6.41;81.82
76586;BME280;65251;51.022;13.736;2023-04-08T02:46:44;99644.78;;;6.40;82.43
76586;BME280;65251;51.022;13.736;2023-04-08T02:47:14;99656.22;;;6.41;82.73
76586;BME280;65251;51.022;13.736;2023-04-08T02:47:46;99645.00;;;6.39;82.39
76586;BME280;65251;51.022;13.736;2023-04-08T02:48:17;99658.22;;;6.39;82.85
76586;BME280;65251;51.022;13.736;2023-04-08T02:48:48;99659.22;;;6.38;82.77
76586;BME280;65251;51.022;13.736;2023-04-08T02:49:20;99658.06;;;6.32;82.82
76586;BME280;65251;51.022;13.736;2023-04-08T02:49:50;99656.41;;;6.31;82.84
76586;BME280;65251;51.022;13.736;2023-04-08T02:50:24;99657.06;;;6.33;83.35
76586;BME280;65251;51.022;13.736;2023-04-08T02:50:56;99668.16;;;6.37;83.63
76586;BME280;65251;51.022;13.736;2023-04-08T02:51:27;99670.63;;;6.38;82.41
76586;BME280;65251;51.022;13.736;2023-04-08T02:51:57;99664.97;;;6.41;82.91
76586;BME280;65251;51.022;13.736;2023-04-08T02:52:29;99669.94;;;6.44;82.90
76586;BME280;65251;51.022;13.736;2023-04-08T02:53:00;99663.81;;;6.44;82.16
76586;BME280;65251;51.022;13.736;2023-04-08T02:53:31;99664.47;;;6.46;82.41
76586;BME280;65251;51.022;13.736;2023-04-08T02:54:02;99665.13;;;6.48;83.16
76586;BME280;65251;51.022;13.736;2023-04-08T02:54:33;99666.13;;;6.47;82.83
76586;BME280;65251;51.022;13.736;2023-04-08T02:55:05;99667.63;;;6.49;82.70
76586;BME280;65251;51.022;13.736;2023-04-08T02:55:39;99658.84;;;6.49;82.24